KTBN/TBN METAR and TAF weather

Enter ICAO airport designator
Station Type Date Time Source
KTBN METAR 2022/08/12 13:56 UTC NOAA

KTBN 121356Z AUTO 10003KT 10SM CLR 23/20 A3019 RMK AO2 SLP217 T02330196


Station Type Date Time Source
KTBN Decoded METAR 2022/08/12 13:56 UTC NOAA

Fort Leonard Wood, MO, United States (KTBN) 37-44N 092-08W
Aug 12, 2022 - 09:56 AM EDT / 2022.08.12 1356 UTC
Wind: from the E (100 degrees) at 3 MPH (3 KT):0
Visibility: 10 mile(s):0
Sky conditions: clear
Temperature: 73.9 F (23.3 C)
Dew Point: 67.3 F (19.6 C)
Relative Humidity: 79%
Pressure (altimeter): 30.19 in. Hg (1022 hPa)
ob: KTBN 121356Z AUTO 10003KT 10SM CLR 23/20 A3019 RMK AO2 SLP217 T02330196
cycle: 14

Station Type Date Time Source
KTBN TAF UTC NOAA

Error!

Example: see airport list